Mount Auburn, Iowa
Current Conditions -  °F | °C
As of 6:15 AM on Wednesday 28 Jan 2015 (Local Time) from KVTI Reporting Station
Haze Haze  
Wind Chill: 17°   Ceiling: 300
Heat Index: 28°   Visibility: 1.7mi
Dew Point: 26°   Wind: 13mph
Humidity: 93%   Direction: 160°SSE
Pressure: 30.13"   Gusts: NA
Location:  42.25°N, 92.09°W
Report Text: KVTI 281215Z AUTO 16011KT 1 3/4SM BR OVC003 M02/M03 A3013 RMK AO2 T10231033
Loading
Personal Weather Stations






























Interactive Weather Map New forecast layout! Learn more

10-Day Weather Forecast

Advertisements
Track Severe Weather on mobile